Joseph Murphy

Scout - Everton
24 Sep 2028
Sunday
Process

Personality

Adaptability (1) Ambition (6) Controversy (11) Loyalty (19) Pressure (11) Professionalism (9) Sportsmanship (1) Temperament (8)

Profile

Coaching Style Democratic
License National B
Determination 8
Man Management 15
Motivating 9
Discipline 13
Job Satisfaction
100%
Fatigue
0%
Role Scout
Wage 56.7K p/w
Contract 14.03.2030

Performance

Behaviour Good
Training Effectiveness
64%
Player Development
50%
Injury Prevention
25%
Tactical Implementation
75%

Recent Events

Attended a recruitment meeting now
Attended a recruitment meeting now
Attended a recruitment meeting now
Recommended a transfer target now
Recommended a transfer target now
Recommended a transfer target now
Recommended a transfer target now
Assessed a player now

Currently Monitoring

118
Player Club Status Ability Confidence Watched Last Observed Latest Vote
Triston Rowe Derby County Active 119 / 126 40% 1 22.09.2028 -
Veljko Milosavljević Bournemouth Active 157 / 156 40% 1 22.09.2028 -
Daniel Banjaqui Benfica Active 122 / 133 40% 2 21.09.2028 -
Axel Tape Bayer Leverkusen Active 137 / 142 40% 2 21.09.2028 -
Moses Sesay Southampton Active 119 / 123 40% 1 21.09.2028 -
Celías Ingenthron Platense Active 123 / 121 40% 5 20.09.2028 -
Bade Aluko Leicester City Active 128 / 132 40% 3 20.09.2028 -
Luka Vušković Tottenham Active 147 / 157 40% 2 20.09.2028 -
Honest Ahanor Atalanta Active 141 / 147 40% 5 18.09.2028 -
Chris Rigg West Ham United Active 139 / 150 40% 2 18.09.2028 -
Diego León Rotherham United Active 121 / 127 40% 3 18.09.2028 -
Aarón Martín Al-Qadisiyah Active 130 / 123 40% 2 17.09.2028 -
Christos Mouzakitis Hull City Active 134 / 149 40% 4 16.09.2028 -
Ronan Kpakio AC Milan Active 123 / 133 40% 2 16.09.2028 -
Ezra Mayers West Ham United Active 127 / 132 40% 1 16.09.2028 -
Jan Bürger Northampton Town Active 116 / 124 40% 7 15.09.2028 -
Harry Amass Manchester United Active 149 / 155 40% 2 15.09.2028 -
Ayyoub Bouaddi Stoke City Active 143 / 162 40% 2 15.09.2028 -
Harrison Armstrong Ipswich Town Active 147 / 142 40% 2 13.09.2028 -
Aidan Borland Espanyol Active 106 / 122 40% 1 13.09.2028 -
Alejandro Almaraz NK Celje Active 115 / 124 40% 2 11.09.2028 -
Salvador Blopá Wolverhampton Active 127 / 130 40% 1 11.09.2028 -
Louis Page Leicester City Active 142 / 140 40% 1 11.09.2028 -
Joe Bryan Bromley Lost 109 / 117 69% 1 14.08.2028 -
Sindre Walle Egeli Udinese Lost 138 / 141 40% 2 10.07.2028 -
Dwight McNeil Crystal Palace Active 157 / 144 40% 1 10.07.2028 -
Diego Mascardi Juventus Active 147 / 146 40% 1 01.06.2028 -
Christian Pulisic AC Milan Active 163 / 163 40% 1 31.05.2028 -
Tyrese Campbell Sheffield United Active 132 / 131 40% 1 31.05.2028 -
Andrey Ivlev Nizhniy Novgorod Active 114 / 120 40% 3 30.05.2028 -
Tobías Ramírez River Plate Active 140 / 136 40% 1 30.05.2028 -
Bernardo Lima Porto Active 115 / 117 40% 1 29.05.2028 -
Josh Nichols Oldham Athletic Active 124 / 126 40% 1 27.05.2028 -
Augusto Bando Ascoli Active 113 / 115 40% 2 23.05.2028 -
Trey Nyoni Rotherham United Active 133 / 146 40% 2 23.05.2028 -
Riquelme Thompson-Jones Accrington Stanley Active 105 / 115 40% 2 23.05.2028 -
Tyler Fletcher Rotherham United Active 111 / 120 40% 3 22.05.2028 -
Ayden Heaven Portsmouth Active 145 / 148 40% 2 16.05.2028 -
Giovanni Leoni Lincoln City Active 138 / 144 40% 2 14.05.2028 -
Jorthy Mokio ADO Den Haag Active 139 / 139 40% 1 14.05.2028 -
Kiani Inge Groningen Active 109 / 122 40% 1 13.05.2028 -
Antonín Kinský Tottenham Active 143 / 155 40% 1 31.12.2027 -
Melker Ellborg Sunderland Active 135 / 133 40% 1 31.12.2027 -
Mohamed-Ali Cho Hull City Active 128 / 139 65% 1 01.06.2027 Approve
Radek Vítek Middlesbrough Active 135 / 137 40% 11 31.05.2027 -
Lukáš Horníček Burnley Active 146 / 153 40% 1 31.05.2027 -
Oscar Schwartau Norwich City Active 123 / 122 40% 4 29.05.2027 -
Bazoumana Touré Newcastle United Active 132 / 139 40% 2 29.05.2027 -
Caleb Yirenkyi Coventry City Active 146 / 143 40% 2 28.05.2027 -
Ryan Oné Sheffield United Active 116 / 124 40% 2 28.05.2027 -
Ethan Williams Peterborough United Active 112 / 119 40% 4 25.05.2027 -
Leo Castledine Middlesbrough Active 123 / 127 40% 1 25.05.2027 -
Sascha Britschgi AC Milan Active 125 / 132 40% 1 21.05.2027 -
Marvin Keller Chelsea Active 153 / 140 75% 10 20.05.2027 Strong Approve
James Trafford Leeds United Active 149 / 142 75% 9 18.05.2027 Strong Approve
Zion Suzuki Aston Villa Active 150 / 144 40% 8 18.05.2027 -
Mohamadou Kanté Crawley Town Active 118 / 120 40% 3 16.05.2027 -
Senne Lammens Manchester United Active 153 / 151 40% 7 15.05.2027 -
Nestory Irankunda Watford Active 113 / 131 40% 4 14.05.2027 -
Romelle Donovan Brentford Active 131 / 125 40% 2 12.05.2027 -
Alphadjo Cissé Lecce Active 120 / 128 40% 1 09.05.2027 -
Kirill Glebov CSKA Moscow Active 121 / 131 40% 3 04.05.2027 -
Tiago Freitas Benfica Active 106 / 114 40% 1 01.05.2027 -
Mateus Mané Burnley Active 131 / 138 40% 3 25.04.2027 -
Robin Roefs Sunderland Active 151 / 151 67% 12 24.04.2027 Approve
Mathys Tel Tottenham Active 144 / 149 40% 3 16.04.2027 -
Chemsdine Talbi Sunderland Active 143 / 149 40% 3 16.04.2027 -
Oliver Dovin Coventry City Active 122 / 133 40% 3 16.04.2027 -
Eduardo Fernandes Benfica Active 99 / 110 40% 1 09.04.2027 -
Kobbie Mainoo Manchester United Active 146 / 156 40% 1 03.04.2027 -
Othmane Maamma Watford Active 120 / 132 40% 1 26.03.2027 -
Malick Fofana Sunderland Active 149 / 151 40% 1 23.03.2027 -
Antoni Milambo Brentford Active 138 / 141 40% 2 21.03.2027 -
Cemran Dansin Orlando Pirates Active 107 / 109 40% 1 21.03.2027 -
Rocco Vata Watford Active 113 / 128 40% 1 18.03.2027 -
Josh Keeley Luton Town Active 117 / 121 40% 1 30.12.2026 -
Fran Vieites Walsall Active 110 / 120 40% 1 30.12.2026 -
Matheus Cunha Manchester United Active 153 / 156 40% 2 29.12.2026 -
Mats Wieffer Brighton Active 147 / 144 40% 5 28.12.2026 -
Xaver Schlager Nottingham Forest Active 161 / 149 40% 3 28.12.2026 -
João Pedro Chelsea Active 159 / 147 40% 2 25.12.2026 -
Emanuel Emegha Chelsea Active 130 / 141 40% 1 23.12.2026 -
Pedro Porro Tottenham Active 142 / 144 40% 2 22.12.2026 -
William Saliba Arsenal Active 168 / 180 40% 2 20.12.2026 -
Anthony Patterson Wrexham Active 129 / 123 40% 1 19.12.2026 -
Manu Koné AS Roma Active 163 / 160 40% 1 17.12.2026 -
Jérémy Doku Manchester City Active 157 / 160 40% 4 16.12.2026 Monitor
Yeangel Montero Naxxar Lions Active 110 / 99 40% 1 14.12.2026 -
Talles Magno New York City Active 116 / 123 40% 3 12.12.2026 -
Antoine Semenyo Manchester City Active 161 / 155 40% 2 11.12.2026 -
Thiago Brentford Active 142 / 143 40% 1 10.12.2026 -
Eddie Nketiah Crystal Palace Active 148 / 137 40% 1 06.12.2026 -
Noussair Mazraoui Manchester United Active 155 / 147 40% 2 27.11.2026 -
Gabriel Martinelli Arsenal Active 161 / 157 40% 2 26.11.2026 Needs More Info
Jesus Ferreira Seattle Sounders Active 121 / 133 40% 3 21.11.2026 -
Jurriën Timber Arsenal Active 153 / 158 40% 2 19.11.2026 -
Youri Tielemans Manchester United Active 158 / 157 40% 1 19.11.2026 -
Marc Guéhi Manchester City Active 174 / 172 40% 2 18.11.2026 -
Gabriel Arsenal Active 179 / 169 40% 1 17.11.2026 -
Moisés Caicedo Chelsea Active 163 / 165 40% 1 15.11.2026 -
Nicolas Jackson Aston Villa Active 156 / 146 40% 2 14.11.2026 -
Benjamin White Arsenal Active 163 / 152 40% 2 13.11.2026 -
Sandro Tonali Tottenham Active 175 / 167 40% 1 13.11.2026 -
Mads Hermansen West Ham United Active 127 / 131 40% 2 09.11.2026 -
Cheikh Sabaly Vancouver Whitecaps Active 136 / 118 40% 1 09.11.2026 -
Rúben Dias Manchester City Active 169 / 171 40% 1 07.11.2026 -
Levi Colwill Chelsea Active 155 / 162 40% 2 06.11.2026 -
Joseph Leclercq Tottenham Active 145 / 150 40% 2 31.10.2026 -
Roman Celentano FC Cincinnati Active 110 / 121 40% 2 31.10.2026 -
Óscar Mingueza Crystal Palace Active 144 / 154 40% 1 27.10.2026 -
Patrick Schulte Columbus Crew Active 109 / 128 40% 1 24.10.2026 -
Josh Sargent Toronto FC Active 132 / 129 40% 1 17.10.2026 -
Tino Livramento Newcastle United Active 155 / 158 40% 1 15.10.2026 -
Quinten Timber Crystal Palace Active 159 / 147 40% 1 15.10.2026 -
Enzo Fernández Manchester City Active 162 / 169 40% 1 14.10.2026 -
Grégoire Coudert Burnley Active 124 / 123 40% 1 10.10.2026 -
Agustín Anello Philadelphia Union Active 110 / 119 40% 1 09.10.2026 -
Dejan Joveljić Seattle Sounders Active 129 / 127 40% 1 09.10.2026 -